Terminal Aerodrome Forecast
Issued by NWS Tampa Bay Area, FL

Home | Current Version | Previous Version | Text Only | Print | Product List | Glossary On
Versions: 1 2 3 4 5 6 7 8 9 10 11 12 13 14 15 16 17 18 19 20 21 22 23
000
FTUS42 KTBW 061700 CCA
TAFSRQ
TAF COR
KSRQ 061738Z 0618/0718 27008KT P6SM SCT015
      TEMPO 0618/0621 4SM -SHRA BR BKN015
     FM062100 35008KT P6SM VCSH OVC008
     FM070100 03010KT P6SM OVC015
     FM071000 03012KT P6SM BKN025
     FM071400 05012KT P6SM BKN035=

USA.gov is the U.S. government's official web portal to all federal, state and local government web resources and services.